createdAt,value
2019-04-16T00:00:36.998Z,9.55
2019-04-16T00:05:45.496Z,9.33
2019-04-16T00:11:07.106Z,9.05
2019-04-16T00:16:13.763Z,9.23
2019-04-16T00:21:41.887Z,9.45
2019-04-16T00:26:58.067Z,8.97
2019-04-16T00:32:18.428Z,9.63
2019-04-16T00:37:23.867Z,9.33
2019-04-16T00:42:30.427Z,9.90
2019-04-16T00:47:35.977Z,10.00
2019-04-16T00:52:43.228Z,9.98
2019-04-16T00:57:49.281Z,9.83
2019-04-16T01:02:55.916Z,9.58
2019-04-16T01:08:01.421Z,9.73
2019-04-16T01:13:07.263Z,9.90
2019-04-16T01:18:12.934Z,9.40
2019-04-16T01:23:18.480Z,9.43
2019-04-16T01:28:29.411Z,9.18
2019-04-16T01:33:53.561Z,9.93
2019-04-16T01:39:14.937Z,9.80
2019-04-16T01:44:10.418Z,9.35
2019-04-16T01:49:16.000Z,9.60
2019-04-16T01:54:22.915Z,9.23
2019-04-16T01:59:28.840Z,10.08
2019-04-16T02:04:34.197Z,9.73
2019-04-16T02:09:39.824Z,9.65
2019-04-16T02:14:47.374Z,9.50
2019-04-16T02:19:53.667Z,9.38
2019-04-16T02:24:59.293Z,10.10
2019-04-16T02:30:05.900Z,9.70
2019-04-16T02:35:11.437Z,9.73
2019-04-16T02:40:18.773Z,10.00
2019-04-16T02:45:24.598Z,10.08
2019-04-16T02:51:05.251Z,9.60
2019-04-16T02:56:26.254Z,9.73
2019-04-16T03:01:56.898Z,9.43
2019-04-16T03:07:03.337Z,9.78
2019-04-16T03:12:09.211Z,10.25
2019-04-16T03:17:32.501Z,10.10
2019-04-16T03:22:37.958Z,9.90
2019-04-16T03:27:43.228Z,9.90
2019-04-16T03:32:50.232Z,10.23
2019-04-16T03:37:55.603Z,10.08
2019-04-16T03:43:03.959Z,9.53
2019-04-16T03:48:08.086Z,10.15
2019-04-16T03:53:16.639Z,10.37
2019-04-16T03:58:20.672Z,9.85
2019-04-16T04:03:26.943Z,10.75
2019-04-16T04:08:32.506Z,10.43
2019-04-16T04:13:37.895Z,10.50
2019-04-16T04:18:43.962Z,11.28
2019-04-16T04:23:50.635Z,11.28
2019-04-16T04:28:56.277Z,11.12
2019-04-16T04:34:01.803Z,11.35
2019-04-16T04:39:09.956Z,10.40
2019-04-16T04:44:14.824Z,11.00
2019-04-16T04:49:20.243Z,11.15
2019-04-16T04:54:26.054Z,11.68
2019-04-16T04:59:31.346Z,11.68
2019-04-16T05:04:55.600Z,11.80
2019-04-16T05:10:01.202Z,11.25
2019-04-16T05:15:06.925Z,11.70
2019-04-16T05:20:15.447Z,11.03
2019-04-16T05:25:19.608Z,11.53
2019-04-16T05:30:24.922Z,11.78
2019-04-16T05:35:30.476Z,11.50
2019-04-16T05:40:35.855Z,10.90
2019-04-16T05:45:41.326Z,10.85
2019-04-16T05:50:46.661Z,11.43
2019-04-16T05:56:29.031Z,10.67
2019-04-16T06:01:42.440Z,11.93
2019-04-16T06:06:48.915Z,10.58
2019-04-16T06:11:54.198Z,9.93
2019-04-16T06:17:17.452Z,10.05
2019-04-16T06:22:37.428Z,9.93
2019-04-16T06:27:58.068Z,9.43
2019-04-16T06:33:06.400Z,9.80
2019-04-16T06:38:36.751Z,10.23
2019-04-16T06:43:45.154Z,9.90
2019-04-16T06:49:14.370Z,9.80
2019-04-16T06:54:34.557Z,9.70
2019-04-16T06:59:59.589Z,9.80
2019-04-16T07:05:21.630Z,9.40
2019-04-16T07:10:43.719Z,9.58
2019-04-16T07:15:37.622Z,9.80
2019-04-16T07:20:45.716Z,10.15
2019-04-16T07:25:51.120Z,10.00
2019-04-16T07:31:25.915Z,9.70
2019-04-16T07:36:40.026Z,9.90
2019-04-16T07:42:10.757Z,9.87
2019-04-16T07:47:33.253Z,10.07
2019-04-16T07:53:03.684Z,10.75
2019-04-16T07:58:09.090Z,10.50
2019-04-16T08:03:15.418Z,10.83
2019-04-16T08:08:24.300Z,10.43
2019-04-16T08:13:33.262Z,11.55
2019-04-16T08:18:47.581Z,11.08
2019-04-16T08:24:06.143Z,11.93
2019-04-16T08:29:11.451Z,12.18
2019-04-16T08:34:17.145Z,11.70
2019-04-16T08:39:23.436Z,11.73
2019-04-16T08:44:29.111Z,12.70
2019-04-16T08:49:34.428Z,12.20
2019-04-16T08:54:40.314Z,12.15
2019-04-16T08:59:45.687Z,12.20
2019-04-16T09:04:51.407Z,12.43
2019-04-16T09:09:57.958Z,12.45
2019-04-16T09:15:05.242Z,12.45
2019-04-16T09:20:16.192Z,13.62
2019-04-16T09:25:42.551Z,13.05
2019-04-16T09:31:09.388Z,13.45
2019-04-16T09:36:49.820Z,13.68
2019-04-16T09:41:56.209Z,13.45
2019-04-16T09:47:05.064Z,12.95
2019-04-16T09:52:09.583Z,14.03
2019-04-16T09:57:14.959Z,13.72
2019-04-16T10:02:23.800Z,13.38
2019-04-16T10:07:29.170Z,13.85
2019-04-16T10:12:34.900Z,13.55
2019-04-16T10:17:40.456Z,13.83
2019-04-16T10:22:45.870Z,14.45
2019-04-16T10:27:57.782Z,14.25
2019-04-16T10:33:03.051Z,14.60
2019-04-16T10:38:27.099Z,15.10
2019-04-16T10:43:48.818Z,14.37
2019-04-16T10:49:13.066Z,14.78
2019-04-16T10:54:43.697Z,15.88
2019-04-16T11:00:12.352Z,14.47
2019-04-16T11:05:35.496Z,15.32
2019-04-16T11:10:40.909Z,14.23
2019-04-16T11:15:46.473Z,14.85
2019-04-16T11:20:51.963Z,14.98
2019-04-16T11:25:57.297Z,15.63
2019-04-16T11:31:04.965Z,16.73
2019-04-16T11:36:18.850Z,15.88
2019-04-16T11:41:17.336Z,16.17
2019-04-16T11:46:22.820Z,17.67
2019-04-16T11:51:29.550Z,17.03
2019-04-16T11:56:35.895Z,16.87
2019-04-16T12:02:03.190Z,16.65
2019-04-16T12:07:34.855Z,16.30
2019-04-16T12:13:08.401Z,16.32
2019-04-16T12:18:44.896Z,14.63
2019-04-16T12:24:21.182Z,14.43
2019-04-16T12:29:46.177Z,13.75
2019-04-16T12:35:16.346Z,13.28
2019-04-16T12:40:46.563Z,13.93
2019-04-16T12:46:13.806Z,13.05
2019-04-16T12:51:29.668Z,14.23
2019-04-16T12:56:52.703Z,13.55
2019-04-16T13:02:32.325Z,14.55
2019-04-16T13:07:48.754Z,14.05
2019-04-16T13:13:20.163Z,12.45
2019-04-16T13:18:33.443Z,11.60
2019-04-16T13:24:02.243Z,10.03
2019-04-16T13:29:10.917Z,8.28
2019-04-16T13:34:18.596Z,8.77
2019-04-16T13:39:35.718Z,8.00
2019-04-16T13:44:47.849Z,7.40
2019-04-16T13:50:15.304Z,7.83
2019-04-16T13:55:34.272Z,8.20
2019-04-16T14:00:43.973Z,9.47
2019-04-16T14:05:49.360Z,9.10
2019-04-16T14:10:55.042Z,8.47
2019-04-16T14:16:00.696Z,8.75
2019-04-16T14:21:06.023Z,9.40
2019-04-16T14:26:11.464Z,9.43
2019-04-16T14:31:17.905Z,9.18
2019-04-16T14:36:24.098Z,8.83
2019-04-16T14:41:29.578Z,8.45
2019-04-16T14:46:36.298Z,9.63
2019-04-16T14:51:41.753Z,9.00
2019-04-16T14:56:54.822Z,7.55
2019-04-16T15:02:09.440Z,8.73
2019-04-16T15:07:20.564Z,8.30
2019-04-16T15:12:44.867Z,9.48
2019-04-16T15:18:09.136Z,9.30
2019-04-16T15:23:33.145Z,8.00
2019-04-16T15:28:47.207Z,7.65
2019-04-16T15:34:11.725Z,8.85
2019-04-16T15:39:22.175Z,9.63
2019-04-16T15:44:40.789Z,8.88
2019-04-16T15:49:55.709Z,9.03
2019-04-16T15:55:24.590Z,9.00
2019-04-16T16:00:47.638Z,10.17
2019-04-16T16:05:58.005Z,10.82
2019-04-16T16:11:06.725Z,12.05
2019-04-16T16:16:17.440Z,12.55
2019-04-16T16:21:19.624Z,12.20
2019-04-16T16:26:24.903Z,11.50
2019-04-16T16:31:33.590Z,11.90
2019-04-16T16:36:40.475Z,11.80
2019-04-16T16:41:46.612Z,12.70
2019-04-16T16:47:00.768Z,12.20
2019-04-16T16:52:26.801Z,7.53
2019-04-16T16:57:35.842Z,4.40
2019-04-16T17:02:50.602Z,4.60
2019-04-16T17:07:55.942Z,3.80
2019-04-16T17:13:01.430Z,3.90
2019-04-16T17:18:06.929Z,3.98
2019-04-16T17:23:16.492Z,3.57
2019-04-16T17:28:19.563Z,3.90
2019-04-16T17:33:24.859Z,3.70
2019-04-16T17:38:30.320Z,4.70
2019-04-16T17:44:02.262Z,6.60
2019-04-16T17:49:26.757Z,4.10
2019-04-16T17:54:38.456Z,10.03
2019-04-16T17:59:51.216Z,11.45
2019-04-16T18:05:13.010Z,9.33
2019-04-16T18:10:46.805Z,6.00
2019-04-16T18:16:07.394Z,5.87
2019-04-16T18:21:30.544Z,7.85
2019-04-16T18:27:07.068Z,18.75
2019-04-16T18:32:35.116Z,8.03
2019-04-16T18:37:50.304Z,5.63
2019-04-16T18:43:29.622Z,9.53
2019-04-16T18:48:36.730Z,5.30
2019-04-16T18:53:43.424Z,10.53
2019-04-16T18:58:49.419Z,16.52
2019-04-16T19:03:55.362Z,12.40
2019-04-16T19:09:01.364Z,5.62
2019-04-16T19:14:10.169Z,7.87
2019-04-16T19:19:15.507Z,13.73
2019-04-16T19:24:21.340Z,13.75
2019-04-16T19:29:27.605Z,9.50
2019-04-16T19:34:32.999Z,5.85
2019-04-16T19:39:39.369Z,6.17
2019-04-16T19:44:45.136Z,6.70
2019-04-16T19:49:50.929Z,9.33
2019-04-16T19:54:56.454Z,5.90
2019-04-16T20:00:01.984Z,5.78
2019-04-16T20:05:08.329Z,6.20
2019-04-16T20:10:14.334Z,6.17
2019-04-16T20:15:20.382Z,6.65
2019-04-16T20:20:26.177Z,8.48
2019-04-16T20:25:32.114Z,7.77
2019-04-16T20:30:38.758Z,7.30
2019-04-16T20:35:44.907Z,7.05
2019-04-16T20:40:50.977Z,8.15
2019-04-16T20:45:56.797Z,7.87
2019-04-16T20:51:03.156Z,8.75
2019-04-16T20:56:10.702Z,10.45
2019-04-16T21:01:32.225Z,10.65
2019-04-16T21:06:24.523Z,10.63
2019-04-16T21:11:29.907Z,9.33
2019-04-16T21:16:35.459Z,8.18
2019-04-16T21:21:41.203Z,7.63
2019-04-16T21:26:51.016Z,7.50
2019-04-16T21:32:00.319Z,7.83
2019-04-16T21:37:34.522Z,7.40
2019-04-16T21:42:40.028Z,9.23
2019-04-16T21:47:45.899Z,7.60
2019-04-16T21:52:55.020Z,6.70
2019-04-16T21:57:58.575Z,6.17
2019-04-16T22:03:09.136Z,6.57
2019-04-16T22:08:13.474Z,6.22
2019-04-16T22:13:20.066Z,6.67
2019-04-16T22:18:25.639Z,7.33
2019-04-16T22:23:31.055Z,6.83
2019-04-16T22:28:37.008Z,6.35
2019-04-16T22:33:42.412Z,5.87
2019-04-16T22:38:50.946Z,5.70
2019-04-16T22:44:17.686Z,4.97
2019-04-16T22:49:23.346Z,4.80
2019-04-16T22:54:28.775Z,4.72
2019-04-16T22:59:39.086Z,4.70
2019-04-16T23:04:42.107Z,4.67
2019-04-16T23:09:48.681Z,4.55
2019-04-16T23:14:54.659Z,4.40
2019-04-16T23:20:00.373Z,3.80
2019-04-16T23:25:05.912Z,4.30
2019-04-16T23:30:11.442Z,4.37
2019-04-16T23:35:16.966Z,4.30
2019-04-16T23:40:22.413Z,4.80
2019-04-16T23:45:45.419Z,4.77
2019-04-16T23:51:21.611Z,4.90
2019-04-16T23:56:33.814Z,3.92
